Terminal Aerodrome Forecast
Issued by NWS

Home | Current Version | Previous Version | Text Only | Print | Product List | Glossary On
Versions: 1 2 3 4 5 6 7 8 9 10 11 12 13 14 15 16 17 18 19 20 21 22 23
000
FTUS43 KDVN 221540 AAB
TAFBRL
TAF AMD
KBRL 221540Z 2216/2312 05009KT P6SM VCSH OVC017
     FM221700 06010KT 4SM BR OVC008
     FM230200 08008KT 3SM -RA BR OVC006=

USA.gov is the U.S. government's official web portal to all federal, state and local government web resources and services.